sensor_id;sensor_type;location;lat;lon;timestamp;P1;durP1;ratioP1;P2;durP2;ratioP2
10963;SDS011;5534;48.784;9.190;2023-02-01T00:02:17;2.50;;;1.90;;
10963;SDS011;5534;48.784;9.190;2023-02-01T00:04:42;3.73;;;2.30;;
10963;SDS011;5534;48.784;9.190;2023-02-01T00:07:08;4.50;;;2.00;;
10963;SDS011;5534;48.784;9.190;2023-02-01T00:09:34;4.70;;;2.30;;
10963;SDS011;5534;48.784;9.190;2023-02-01T00:12:00;3.07;;;2.17;;
10963;SDS011;5534;48.784;9.190;2023-02-01T00:14:28;3.00;;;2.23;;
10963;SDS011;5534;48.784;9.190;2023-02-01T00:16:54;2.30;;;1.93;;
10963;SDS011;5534;48.784;9.190;2023-02-01T00:19:20;4.77;;;2.23;;
10963;SDS011;5534;48.784;9.190;2023-02-01T00:21:46;2.60;;;1.90;;
10963;SDS011;5534;48.784;9.190;2023-02-01T00:24:12;3.03;;;2.13;;
10963;SDS011;5534;48.784;9.190;2023-02-01T00:26:39;4.37;;;2.10;;
10963;SDS011;5534;48.784;9.190;2023-02-01T00:29:09;2.83;;;2.17;;
10963;SDS011;5534;48.784;9.190;2023-02-01T00:31:38;2.60;;;1.87;;
10963;SDS011;5534;48.784;9.190;2023-02-01T00:34:04;2.60;;;2.00;;
10963;SDS011;5534;48.784;9.190;2023-02-01T00:36:30;4.13;;;1.70;;
10963;SDS011;5534;48.784;9.190;2023-02-01T00:38:56;1.57;;;1.47;;
10963;SDS011;5534;48.784;9.190;2023-02-01T00:41:22;2.63;;;1.70;;
10963;SDS011;5534;48.784;9.190;2023-02-01T00:43:48;2.00;;;1.63;;
10963;SDS011;5534;48.784;9.190;2023-02-01T00:46:16;2.00;;;1.63;;
10963;SDS011;5534;48.784;9.190;2023-02-01T00:48:43;1.90;;;1.70;;
10963;SDS011;5534;48.784;9.190;2023-02-01T00:51:10;2.37;;;1.60;;
10963;SDS011;5534;48.784;9.190;2023-02-01T00:53:37;2.93;;;1.70;;
10963;SDS011;5534;48.784;9.190;2023-02-01T00:56:04;2.17;;;1.63;;
10963;SDS011;5534;48.784;9.190;2023-02-01T00:58:30;2.20;;;1.70;;
10963;SDS011;5534;48.784;9.190;2023-02-01T01:03:38;2.70;;;1.90;;
10963;SDS011;5534;48.784;9.190;2023-02-01T01:06:07;1.87;;;1.57;;
10963;SDS011;5534;48.784;9.190;2023-02-01T01:08:35;3.00;;;1.80;;
10963;SDS011;5534;48.784;9.190;2023-02-01T01:11:08;1.90;;;1.60;;
10963;SDS011;5534;48.784;9.190;2023-02-01T01:13:40;2.37;;;1.70;;
10963;SDS011;5534;48.784;9.190;2023-02-01T01:16:06;1.97;;;1.50;;
10963;SDS011;5534;48.784;9.190;2023-02-01T01:18:34;2.40;;;1.60;;
10963;SDS011;5534;48.784;9.190;2023-02-01T01:21:00;2.20;;;1.50;;
10963;SDS011;5534;48.784;9.190;2023-02-01T01:23:27;3.27;;;1.30;;
10963;SDS011;5534;48.784;9.190;2023-02-01T01:25:53;1.80;;;1.50;;
10963;SDS011;5534;48.784;9.190;2023-02-01T01:28:19;1.77;;;1.30;;
10963;SDS011;5534;48.784;9.190;2023-02-01T01:30:46;2.30;;;1.33;;
10963;SDS011;5534;48.784;9.190;2023-02-01T01:33:12;1.83;;;1.40;;
10963;SDS011;5534;48.784;9.190;2023-02-01T01:35:38;2.60;;;1.20;;
10963;SDS011;5534;48.784;9.190;2023-02-01T01:38:04;1.50;;;1.37;;
10963;SDS011;5534;48.784;9.190;2023-02-01T01:40:30;1.50;;;1.20;;
10963;SDS011;5534;48.784;9.190;2023-02-01T01:42:55;1.70;;;1.30;;
10963;SDS011;5534;48.784;9.190;2023-02-01T01:47:53;1.20;;;1.10;;
10963;SDS011;5534;48.784;9.190;2023-02-01T01:50:27;1.40;;;1.00;;
10963;SDS011;5534;48.784;9.190;2023-02-01T01:53:00;1.40;;;1.20;;
10963;SDS011;5534;48.784;9.190;2023-02-01T01:55:31;2.30;;;1.20;;
10963;SDS011;5534;48.784;9.190;2023-02-01T01:58:02;1.10;;;1.00;;
10963;SDS011;5534;48.784;9.190;2023-02-01T02:00:35;1.43;;;1.13;;
10963;SDS011;5534;48.784;9.190;2023-02-01T02:03:07;1.40;;;1.20;;
10963;SDS011;5534;48.784;9.190;2023-02-01T02:05:54;1.03;;;0.93;;
10963;SDS011;5534;48.784;9.190;2023-02-01T02:08:23;1.30;;;1.17;;
10963;SDS011;5534;48.784;9.190;2023-02-01T02:10:51;1.30;;;1.10;;
10963;SDS011;5534;48.784;9.190;2023-02-01T02:21:14;1.73;;;1.20;;
10963;SDS011;5534;48.784;9.190;2023-02-01T02:26:47;1.40;;;1.20;;
10963;SDS011;5534;48.784;9.190;2023-02-01T02:40:43;1.63;;;1.40;;
10963;SDS011;5534;48.784;9.190;2023-02-01T02:43:23;1.33;;;1.20;;
10963;SDS011;5534;48.784;9.190;2023-02-01T02:46:26;2.67;;;1.30;;
10963;SDS011;5534;48.784;9.190;2023-02-01T02:49:22;1.93;;;1.30;;
10963;SDS011;5534;48.784;9.190;2023-02-01T02:52:29;2.30;;;1.37;;
10963;SDS011;5534;48.784;9.190;2023-02-01T02:55:15;1.57;;;1.23;;
10963;SDS011;5534;48.784;9.190;2023-02-01T02:57:41;1.27;;;1.10;;
10963;SDS011;5534;48.784;9.190;2023-02-01T03:00:28;1.57;;;1.30;;
10963;SDS011;5534;48.784;9.190;2023-02-01T03:03:15;2.13;;;1.50;;
10963;SDS011;5534;48.784;9.190;2023-02-01T03:06:01;2.13;;;1.33;;
10963;SDS011;5534;48.784;9.190;2023-02-01T03:08:28;1.63;;;1.30;;
10963;SDS011;5534;48.784;9.190;2023-02-01T03:13:32;2.10;;;1.40;;
10963;SDS011;5534;48.784;9.190;2023-02-01T03:18:53;1.70;;;1.33;;
10963;SDS011;5534;48.784;9.190;2023-02-01T03:21:32;1.93;;;1.40;;
10963;SDS011;5534;48.784;9.190;2023-02-01T03:24:12;1.97;;;1.50;;
10963;SDS011;5534;48.784;9.190;2023-02-01T03:26:41;1.20;;;1.10;;
10963;SDS011;5534;48.784;9.190;2023-02-01T03:29:14;2.00;;;1.50;;
10963;SDS011;5534;48.784;9.190;2023-02-01T03:31:46;1.63;;;1.27;;
10963;SDS011;5534;48.784;9.190;2023-02-01T03:34:12;1.80;;;1.50;;
10963;SDS011;5534;48.784;9.190;2023-02-01T03:36:40;1.67;;;1.40;;
10963;SDS011;5534;48.784;9.190;2023-02-01T03:39:11;1.50;;;1.10;;
10963;SDS011;5534;48.784;9.190;2023-02-01T03:41:48;2.77;;;1.33;;
10963;SDS011;5534;48.784;9.190;2023-02-01T03:47:19;1.63;;;1.47;;
10963;SDS011;5534;48.784;9.190;2023-02-01T03:49:49;2.70;;;1.40;;
10963;SDS011;5534;48.784;9.190;2023-02-01T03:52:22;1.77;;;1.40;;
10963;SDS011;5534;48.784;9.190;2023-02-01T03:55:02;1.47;;;1.37;;
10963;SDS011;5534;48.784;9.190;2023-02-01T03:57:31;2.97;;;1.50;;
10963;SDS011;5534;48.784;9.190;2023-02-01T04:00:04;2.23;;;1.47;;
10963;SDS011;5534;48.784;9.190;2023-02-01T04:02:39;1.53;;;1.40;;
10963;SDS011;5534;48.784;9.190;2023-02-01T04:05:05;2.17;;;1.67;;
10963;SDS011;5534;48.784;9.190;2023-02-01T04:07:31;1.47;;;1.20;;
10963;SDS011;5534;48.784;9.190;2023-02-01T04:09:57;1.50;;;1.40;;
10963;SDS011;5534;48.784;9.190;2023-02-01T04:12:22;1.93;;;1.27;;
10963;SDS011;5534;48.784;9.190;2023-02-01T04:14:48;2.10;;;1.40;;
10963;SDS011;5534;48.784;9.190;2023-02-01T04:17:14;2.33;;;1.50;;
10963;SDS011;5534;48.784;9.190;2023-02-01T04:19:40;1.90;;;1.50;;
10963;SDS011;5534;48.784;9.190;2023-02-01T04:22:05;3.40;;;1.43;;
10963;SDS011;5534;48.784;9.190;2023-02-01T04:24:31;1.60;;;1.50;;
10963;SDS011;5534;48.784;9.190;2023-02-01T04:26:57;2.10;;;1.70;;
10963;SDS011;5534;48.784;9.190;2023-02-01T04:29:22;1.97;;;1.40;;
10963;SDS011;5534;48.784;9.190;2023-02-01T04:31:48;2.10;;;1.57;;
10963;SDS011;5534;48.784;9.190;2023-02-01T04:34:14;3.03;;;1.77;;
10963;SDS011;5534;48.784;9.190;2023-02-01T04:36:40;2.13;;;1.40;;
10963;SDS011;5534;48.784;9.190;2023-02-01T04:39:08;1.60;;;1.50;;
10963;SDS011;5534;48.784;9.190;2023-02-01T04:41:34;2.20;;;1.50;;
10963;SDS011;5534;48.784;9.190;2023-02-01T04:44:00;1.60;;;1.40;;
10963;SDS011;5534;48.784;9.190;2023-02-01T04:46:25;1.63;;;1.53;;
10963;SDS011;5534;48.784;9.190;2023-02-01T04:48:51;1.80;;;1.50;;
10963;SDS011;5534;48.784;9.190;2023-02-01T04:51:17;2.23;;;1.70;;
10963;SDS011;5534;48.784;9.190;2023-02-01T04:53:43;2.57;;;1.60;;
10963;SDS011;5534;48.784;9.190;2023-02-01T04:56:09;3.87;;;1.93;;
10963;SDS011;5534;48.784;9.190;2023-02-01T04:58:35;1.57;;;1.30;;
10963;SDS011;5534;48.784;9.190;2023-02-01T05:01:04;2.03;;;1.60;;
10963;SDS011;5534;48.784;9.190;2023-02-01T05:03:34;2.33;;;1.70;;
10963;SDS011;5534;48.784;9.190;2023-02-01T05:06:00;3.13;;;1.50;;
10963;SDS011;5534;48.784;9.190;2023-02-01T05:08:26;1.47;;;1.37;;
10963;SDS011;5534;48.784;9.190;2023-02-01T05:10:53;2.03;;;1.30;;
10963;SDS011;5534;48.784;9.190;2023-02-01T05:13:19;1.80;;;1.43;;
10963;SDS011;5534;48.784;9.190;2023-02-01T05:16:03;1.50;;;1.40;;
10963;SDS011;5534;48.784;9.190;2023-02-01T05:18:30;2.17;;;1.40;;
10963;SDS011;5534;48.784;9.190;2023-02-01T05:20:56;2.13;;;1.20;;
10963;SDS011;5534;48.784;9.190;2023-02-01T05:23:21;1.93;;;1.33;;
10963;SDS011;5534;48.784;9.190;2023-02-01T05:25:47;1.97;;;1.50;;
10963;SDS011;5534;48.784;9.190;2023-02-01T05:28:14;2.67;;;1.50;;
10963;SDS011;5534;48.784;9.190;2023-02-01T05:30:40;1.43;;;1.33;;
10963;SDS011;5534;48.784;9.190;2023-02-01T05:33:06;1.67;;;1.40;;
10963;SDS011;5534;48.784;9.190;2023-02-01T05:35:31;2.70;;;1.40;;
10963;SDS011;5534;48.784;9.190;2023-02-01T05:37:57;2.30;;;1.47;;
10963;SDS011;5534;48.784;9.190;2023-02-01T05:40:23;1.73;;;1.33;;
10963;SDS011;5534;48.784;9.190;2023-02-01T05:42:48;2.20;;;1.40;;
10963;SDS011;5534;48.784;9.190;2023-02-01T05:45:14;3.33;;;1.50;;
10963;SDS011;5534;48.784;9.190;2023-02-01T05:47:40;3.40;;;1.43;;
10963;SDS011;5534;48.784;9.190;2023-02-01T05:50:06;1.40;;;1.10;;
10963;SDS011;5534;48.784;9.190;2023-02-01T05:52:33;2.10;;;1.43;;
10963;SDS011;5534;48.784;9.190;2023-02-01T05:54:59;1.87;;;1.40;;
10963;SDS011;5534;48.784;9.190;2023-02-01T05:57:25;1.70;;;1.27;;
10963;SDS011;5534;48.784;9.190;2023-02-01T05:59:50;2.00;;;1.47;;
10963;SDS011;5534;48.784;9.190;2023-02-01T06:02:16;2.13;;;1.30;;
10963;SDS011;5534;48.784;9.190;2023-02-01T06:04:42;2.00;;;1.20;;
10963;SDS011;5534;48.784;9.190;2023-02-01T06:07:08;1.33;;;1.20;;
10963;SDS011;5534;48.784;9.190;2023-02-01T06:09:35;3.00;;;1.33;;
10963;SDS011;5534;48.784;9.190;2023-02-01T06:12:02;2.90;;;2.00;;
10963;SDS011;5534;48.784;9.190;2023-02-01T06:14:28;5.03;;;1.70;;
10963;SDS011;5534;48.784;9.190;2023-02-01T06:16:54;2.53;;;1.27;;
10963;SDS011;5534;48.784;9.190;2023-02-01T06:19:21;2.50;;;1.40;;
10963;SDS011;5534;48.784;9.190;2023-02-01T06:21:47;3.63;;;1.53;;
10963;SDS011;5534;48.784;9.190;2023-02-01T06:24:12;3.20;;;1.90;;
10963;SDS011;5534;48.784;9.190;2023-02-01T06:26:38;2.97;;;1.47;;
10963;SDS011;5534;48.784;9.190;2023-02-01T06:29:05;2.10;;;1.40;;
10963;SDS011;5534;48.784;9.190;2023-02-01T06:31:32;1.10;;;1.00;;
10963;SDS011;5534;48.784;9.190;2023-02-01T06:33:58;3.77;;;1.50;;
10963;SDS011;5534;48.784;9.190;2023-02-01T06:36:24;1.53;;;1.13;;
10963;SDS011;5534;48.784;9.190;2023-02-01T06:38:51;2.53;;;1.10;;
10963;SDS011;5534;48.784;9.190;2023-02-01T06:41:17;2.10;;;1.30;;
10963;SDS011;5534;48.784;9.190;2023-02-01T06:43:45;2.37;;;1.40;;
10963;SDS011;5534;48.784;9.190;2023-02-01T06:46:11;2.03;;;1.20;;
10963;SDS011;5534;48.784;9.190;2023-02-01T06:48:38;1.80;;;1.60;;
10963;SDS011;5534;48.784;9.190;2023-02-01T06:51:03;2.40;;;1.57;;
10963;SDS011;5534;48.784;9.190;2023-02-01T06:53:29;3.83;;;1.60;;
10963;SDS011;5534;48.784;9.190;2023-02-01T06:55:56;2.77;;;1.30;;
10963;SDS011;5534;48.784;9.190;2023-02-01T06:58:27;1.90;;;1.63;;
10963;SDS011;5534;48.784;9.190;2023-02-01T07:00:55;3.00;;;1.50;;
10963;SDS011;5534;48.784;9.190;2023-02-01T07:03:21;2.60;;;1.33;;
10963;SDS011;5534;48.784;9.190;2023-02-01T07:05:46;3.87;;;1.47;;
10963;SDS011;5534;48.784;9.190;2023-02-01T07:08:12;1.83;;;1.70;;
10963;SDS011;5534;48.784;9.190;2023-02-01T07:10:38;1.47;;;1.27;;
10963;SDS011;5534;48.784;9.190;2023-02-01T07:13:04;2.43;;;1.60;;
10963;SDS011;5534;48.784;9.190;2023-02-01T07:15:30;4.23;;;1.70;;
10963;SDS011;5534;48.784;9.190;2023-02-01T07:17:56;4.00;;;1.60;;
10963;SDS011;5534;48.784;9.190;2023-02-01T07:20:22;2.40;;;1.30;;
10963;SDS011;5534;48.784;9.190;2023-02-01T07:22:48;2.27;;;1.30;;
10963;SDS011;5534;48.784;9.190;2023-02-01T07:25:19;2.70;;;1.50;;
10963;SDS011;5534;48.784;9.190;2023-02-01T07:27:45;4.97;;;1.60;;
10963;SDS011;5534;48.784;9.190;2023-02-01T07:30:12;2.63;;;1.50;;
10963;SDS011;5534;48.784;9.190;2023-02-01T07:32:39;2.10;;;1.77;;
10963;SDS011;5534;48.784;9.190;2023-02-01T07:35:05;2.90;;;1.60;;
10963;SDS011;5534;48.784;9.190;2023-02-01T07:37:31;2.83;;;1.60;;
10963;SDS011;5534;48.784;9.190;2023-02-01T07:39:56;4.13;;;1.60;;
10963;SDS011;5534;48.784;9.190;2023-02-01T07:42:22;1.80;;;1.30;;
10963;SDS011;5534;48.784;9.190;2023-02-01T07:44:48;4.30;;;2.27;;
10963;SDS011;5534;48.784;9.190;2023-02-01T07:47:13;1.87;;;1.37;;
10963;SDS011;5534;48.784;9.190;2023-02-01T07:49:39;3.03;;;1.50;;
10963;SDS011;5534;48.784;9.190;2023-02-01T07:52:05;2.60;;;1.37;;
10963;SDS011;5534;48.784;9.190;2023-02-01T07:54:31;2.17;;;1.50;;
10963;SDS011;5534;48.784;9.190;2023-02-01T07:56:56;4.27;;;1.60;;
10963;SDS011;5534;48.784;9.190;2023-02-01T07:59:22;4.60;;;2.13;;
10963;SDS011;5534;48.784;9.190;2023-02-01T08:01:48;4.37;;;1.80;;
10963;SDS011;5534;48.784;9.190;2023-02-01T08:04:13;4.47;;;1.23;;
10963;SDS011;5534;48.784;9.190;2023-02-01T08:06:39;3.30;;;2.00;;
10963;SDS011;5534;48.784;9.190;2023-02-01T08:09:06;4.53;;;1.80;;
10963;SDS011;5534;48.784;9.190;2023-02-01T08:11:33;3.60;;;1.80;;
10963;SDS011;5534;48.784;9.190;2023-02-01T08:14:01;4.17;;;1.50;;
10963;SDS011;5534;48.784;9.190;2023-02-01T08:16:27;5.47;;;1.93;;
10963;SDS011;5534;48.784;9.190;2023-02-01T08:18:53;3.03;;;1.70;;
10963;SDS011;5534;48.784;9.190;2023-02-01T08:21:20;3.23;;;1.87;;
10963;SDS011;5534;48.784;9.190;2023-02-01T08:23:47;3.90;;;2.50;;
10963;SDS011;5534;48.784;9.190;2023-02-01T08:26:20;3.47;;;1.77;;
10963;SDS011;5534;48.784;9.190;2023-02-01T08:28:52;3.37;;;2.17;;
10963;SDS011;5534;48.784;9.190;2023-02-01T08:31:23;4.07;;;2.10;;
10963;SDS011;5534;48.784;9.190;2023-02-01T08:33:51;2.93;;;2.00;;
10963;SDS011;5534;48.784;9.190;2023-02-01T08:36:18;1.93;;;1.70;;
10963;SDS011;5534;48.784;9.190;2023-02-01T08:38:45;4.40;;;2.10;;
10963;SDS011;5534;48.784;9.190;2023-02-01T08:41:11;3.37;;;1.97;;
10963;SDS011;5534;48.784;9.190;2023-02-01T08:43:39;2.10;;;1.83;;
10963;SDS011;5534;48.784;9.190;2023-02-01T08:46:06;2.13;;;1.47;;
10963;SDS011;5534;48.784;9.190;2023-02-01T08:48:33;2.70;;;1.83;;
10963;SDS011;5534;48.784;9.190;2023-02-01T08:51:03;2.67;;;1.60;;
10963;SDS011;5534;48.784;9.190;2023-02-01T08:53:30;5.43;;;2.50;;
10963;SDS011;5534;48.784;9.190;2023-02-01T08:55:57;5.20;;;2.67;;
10963;SDS011;5534;48.784;9.190;2023-02-01T08:58:26;2.40;;;1.60;;
10963;SDS011;5534;48.784;9.190;2023-02-01T09:00:54;4.60;;;1.83;;
10963;SDS011;5534;48.784;9.190;2023-02-01T09:03:20;3.47;;;1.70;;
10963;SDS011;5534;48.784;9.190;2023-02-01T09:05:46;4.53;;;2.57;;
10963;SDS011;5534;48.784;9.190;2023-02-01T09:08:12;5.23;;;2.63;;
10963;SDS011;5534;48.784;9.190;2023-02-01T09:10:40;4.90;;;2.00;;
10963;SDS011;5534;48.784;9.190;2023-02-01T09:13:07;6.30;;;1.97;;
10963;SDS011;5534;48.784;9.190;2023-02-01T09:15:33;4.07;;;1.93;;
10963;SDS011;5534;48.784;9.190;2023-02-01T09:17:59;4.63;;;1.87;;
10963;SDS011;5534;48.784;9.190;2023-02-01T09:20:25;7.00;;;2.20;;
10963;SDS011;5534;48.784;9.190;2023-02-01T09:22:51;7.63;;;2.03;;
10963;SDS011;5534;48.784;9.190;2023-02-01T09:25:18;7.90;;;2.57;;
10963;SDS011;5534;48.784;9.190;2023-02-01T09:27:44;5.17;;;1.90;;
10963;SDS011;5534;48.784;9.190;2023-02-01T09:30:10;3.80;;;1.90;;
10963;SDS011;5534;48.784;9.190;2023-02-01T09:32:36;6.73;;;2.40;;
10963;SDS011;5534;48.784;9.190;2023-02-01T09:35:02;6.87;;;1.87;;
10963;SDS011;5534;48.784;9.190;2023-02-01T09:37:27;5.27;;;1.83;;
10963;SDS011;5534;48.784;9.190;2023-02-01T09:39:53;11.43;;;4.60;;
10963;SDS011;5534;48.784;9.190;2023-02-01T09:48:15;5.53;;;1.80;;
10963;SDS011;5534;48.784;9.190;2023-02-01T09:50:48;5.93;;;2.17;;
10963;SDS011;5534;48.784;9.190;2023-02-01T09:53:29;5.27;;;2.00;;
10963;SDS011;5534;48.784;9.190;2023-02-01T09:56:21;3.40;;;1.47;;
10963;SDS011;5534;48.784;9.190;2023-02-01T09:58:47;7.53;;;1.70;;
10963;SDS011;5534;48.784;9.190;2023-02-01T10:01:27;7.93;;;3.03;;
10963;SDS011;5534;48.784;9.190;2023-02-01T10:04:01;9.07;;;1.80;;
10963;SDS011;5534;48.784;9.190;2023-02-01T10:06:33;6.73;;;1.70;;
10963;SDS011;5534;48.784;9.190;2023-02-01T10:09:27;7.03;;;2.90;;
10963;SDS011;5534;48.784;9.190;2023-02-01T10:13:08;7.23;;;1.80;;
10963;SDS011;5534;48.784;9.190;2023-02-01T10:17:54;6.67;;;1.80;;
10963;SDS011;5534;48.784;9.190;2023-02-01T10:20:48;7.70;;;1.83;;
10963;SDS011;5534;48.784;9.190;2023-02-01T10:28:50;5.13;;;2.17;;
10963;SDS011;5534;48.784;9.190;2023-02-01T10:31:23;3.63;;;1.60;;
10963;SDS011;5534;48.784;9.190;2023-02-01T10:33:56;8.87;;;1.60;;
10963;SDS011;5534;48.784;9.190;2023-02-01T10:39:15;7.80;;;2.13;;
10963;SDS011;5534;48.784;9.190;2023-02-01T10:41:41;9.77;;;2.70;;
10963;SDS011;5534;48.784;9.190;2023-02-01T10:44:12;8.33;;;1.70;;
10963;SDS011;5534;48.784;9.190;2023-02-01T10:46:41;8.90;;;1.90;;
10963;SDS011;5534;48.784;9.190;2023-02-01T10:49:13;8.53;;;1.70;;
10963;SDS011;5534;48.784;9.190;2023-02-01T10:51:55;6.33;;;1.77;;
10963;SDS011;5534;48.784;9.190;2023-02-01T10:54:34;3.13;;;1.80;;
10963;SDS011;5534;48.784;9.190;2023-02-01T10:57:06;6.57;;;1.60;;
10963;SDS011;5534;48.784;9.190;2023-02-01T10:59:33;9.90;;;2.07;;
10963;SDS011;5534;48.784;9.190;2023-02-01T11:07:37;4.50;;;1.80;;
10963;SDS011;5534;48.784;9.190;2023-02-01T11:10:15;6.20;;;1.80;;
10963;SDS011;5534;48.784;9.190;2023-02-01T11:13:03;8.07;;;2.00;;
10963;SDS011;5534;48.784;9.190;2023-02-01T11:15:29;8.70;;;1.57;;
10963;SDS011;5534;48.784;9.190;2023-02-01T11:17:55;6.97;;;2.20;;
10963;SDS011;5534;48.784;9.190;2023-02-01T11:23:10;8.70;;;2.53;;
10963;SDS011;5534;48.784;9.190;2023-02-01T11:25:47;9.07;;;2.40;;
10963;SDS011;5534;48.784;9.190;2023-02-01T11:28:14;3.90;;;1.47;;
10963;SDS011;5534;48.784;9.190;2023-02-01T11:30:41;6.37;;;1.80;;
10963;SDS011;5534;48.784;9.190;2023-02-01T11:33:14;19.70;;;5.23;;
10963;SDS011;5534;48.784;9.190;2023-02-01T11:35:43;8.07;;;2.50;;
10963;SDS011;5534;48.784;9.190;2023-02-01T11:40:52;9.77;;;3.47;;
10963;SDS011;5534;48.784;9.190;2023-02-01T11:43:28;6.60;;;2.23;;
10963;SDS011;5534;48.784;9.190;2023-02-01T11:46:22;5.93;;;1.57;;
10963;SDS011;5534;48.784;9.190;2023-02-01T11:48:56;5.00;;;1.50;;
10963;SDS011;5534;48.784;9.190;2023-02-01T11:54:26;7.90;;;1.57;;
10963;SDS011;5534;48.784;9.190;2023-02-01T11:59:46;8.43;;;1.80;;
10963;SDS011;5534;48.784;9.190;2023-02-01T12:05:41;5.57;;;1.80;;
10963;SDS011;5534;48.784;9.190;2023-02-01T12:08:25;3.60;;;1.40;;
10963;SDS011;5534;48.784;9.190;2023-02-01T12:19:39;9.17;;;2.03;;
10963;SDS011;5534;48.784;9.190;2023-02-01T12:27:57;6.10;;;1.87;;
10963;SDS011;5534;48.784;9.190;2023-02-01T12:36:31;5.90;;;1.63;;
10963;SDS011;5534;48.784;9.190;2023-02-01T12:50:15;4.27;;;1.63;;
10963;SDS011;5534;48.784;9.190;2023-02-01T12:52:48;4.77;;;1.50;;
10963;SDS011;5534;48.784;9.190;2023-02-01T12:57:46;4.60;;;1.70;;
10963;SDS011;5534;48.784;9.190;2023-02-01T13:00:39;5.70;;;1.93;;
10963;SDS011;5534;48.784;9.190;2023-02-01T13:08:40;5.50;;;1.57;;
10963;SDS011;5534;48.784;9.190;2023-02-01T13:11:16;7.73;;;1.83;;
10963;SDS011;5534;48.784;9.190;2023-02-01T13:16:30;6.50;;;1.57;;
10963;SDS011;5534;48.784;9.190;2023-02-01T13:19:05;7.87;;;1.73;;
10963;SDS011;5534;48.784;9.190;2023-02-01T13:21:43;7.67;;;2.20;;
10963;SDS011;5534;48.784;9.190;2023-02-01T13:24:50;8.40;;;1.63;;
10963;SDS011;5534;48.784;9.190;2023-02-01T13:27:21;3.43;;;1.47;;
10963;SDS011;5534;48.784;9.190;2023-02-01T13:29:52;7.50;;;1.97;;
10963;SDS011;5534;48.784;9.190;2023-02-01T13:32:43;6.47;;;1.70;;
10963;SDS011;5534;48.784;9.190;2023-02-01T13:35:40;6.23;;;1.97;;
10963;SDS011;5534;48.784;9.190;2023-02-01T13:38:31;9.87;;;1.97;;
10963;SDS011;5534;48.784;9.190;2023-02-01T13:43:37;6.73;;;1.80;;
10963;SDS011;5534;48.784;9.190;2023-02-01T13:46:08;12.30;;;1.77;;
10963;SDS011;5534;48.784;9.190;2023-02-01T13:48:59;8.87;;;2.17;;
10963;SDS011;5534;48.784;9.190;2023-02-01T13:51:40;3.73;;;1.50;;
10963;SDS011;5534;48.784;9.190;2023-02-01T13:54:23;5.57;;;1.57;;
10963;SDS011;5534;48.784;9.190;2023-02-01T13:56:51;5.40;;;1.80;;
10963;SDS011;5534;48.784;9.190;2023-02-01T14:05:03;4.80;;;1.50;;
10963;SDS011;5534;48.784;9.190;2023-02-01T14:07:33;7.27;;;1.90;;
10963;SDS011;5534;48.784;9.190;2023-02-01T14:10:05;9.07;;;1.87;;
10963;SDS011;5534;48.784;9.190;2023-02-01T14:13:05;6.87;;;1.73;;
10963;SDS011;5534;48.784;9.190;2023-02-01T14:18:48;5.37;;;1.40;;
10963;SDS011;5534;48.784;9.190;2023-02-01T14:26:20;7.90;;;1.87;;
10963;SDS011;5534;48.784;9.190;2023-02-01T14:28:56;5.43;;;2.40;;
10963;SDS011;5534;48.784;9.190;2023-02-01T14:40:03;3.80;;;1.60;;
10963;SDS011;5534;48.784;9.190;2023-02-01T14:50:36;7.03;;;2.07;;
10963;SDS011;5534;48.784;9.190;2023-02-01T14:53:18;6.03;;;1.90;;
10963;SDS011;5534;48.784;9.190;2023-02-01T14:58:35;3.70;;;1.37;;
10963;SDS011;5534;48.784;9.190;2023-02-01T15:01:21;5.90;;;1.57;;
10963;SDS011;5534;48.784;9.190;2023-02-01T15:04:00;6.67;;;1.97;;
10963;SDS011;5534;48.784;9.190;2023-02-01T15:06:36;10.13;;;1.50;;
10963;SDS011;5534;48.784;9.190;2023-02-01T15:09:13;5.00;;;1.60;;
10963;SDS011;5534;48.784;9.190;2023-02-01T15:14:37;7.37;;;1.73;;
10963;SDS011;5534;48.784;9.190;2023-02-01T15:17:24;6.83;;;1.73;;
10963;SDS011;5534;48.784;9.190;2023-02-01T15:19:55;5.87;;;1.77;;
10963;SDS011;5534;48.784;9.190;2023-02-01T15:22:22;7.63;;;2.40;;
10963;SDS011;5534;48.784;9.190;2023-02-01T15:24:51;5.40;;;1.50;;
10963;SDS011;5534;48.784;9.190;2023-02-01T15:27:24;6.40;;;2.07;;
10963;SDS011;5534;48.784;9.190;2023-02-01T15:29:51;5.13;;;1.67;;
10963;SDS011;5534;48.784;9.190;2023-02-01T15:34:59;6.20;;;1.90;;
10963;SDS011;5534;48.784;9.190;2023-02-01T15:37:26;2.97;;;1.53;;
10963;SDS011;5534;48.784;9.190;2023-02-01T15:42:53;4.80;;;1.80;;
10963;SDS011;5534;48.784;9.190;2023-02-01T15:45:23;9.50;;;1.97;;
10963;SDS011;5534;48.784;9.190;2023-02-01T15:47:53;4.60;;;1.80;;
10963;SDS011;5534;48.784;9.190;2023-02-01T15:50:21;7.07;;;2.20;;
10963;SDS011;5534;48.784;9.190;2023-02-01T15:52:49;4.50;;;1.60;;
10963;SDS011;5534;48.784;9.190;2023-02-01T15:57:44;8.10;;;2.07;;
10963;SDS011;5534;48.784;9.190;2023-02-01T16:00:26;4.87;;;2.03;;
10963;SDS011;5534;48.784;9.190;2023-02-01T16:03:05;6.63;;;1.93;;
10963;SDS011;5534;48.784;9.190;2023-02-01T16:05:53;5.73;;;1.87;;
10963;SDS011;5534;48.784;9.190;2023-02-01T16:08:24;9.07;;;1.50;;
10963;SDS011;5534;48.784;9.190;2023-02-01T16:10:52;5.63;;;1.53;;
10963;SDS011;5534;48.784;9.190;2023-02-01T16:13:24;4.67;;;1.13;;
10963;SDS011;5534;48.784;9.190;2023-02-01T16:15:50;5.93;;;1.43;;
10963;SDS011;5534;48.784;9.190;2023-02-01T16:18:15;5.87;;;1.57;;
10963;SDS011;5534;48.784;9.190;2023-02-01T16:20:41;8.47;;;1.70;;
10963;SDS011;5534;48.784;9.190;2023-02-01T16:23:09;6.93;;;1.80;;
10963;SDS011;5534;48.784;9.190;2023-02-01T16:25:36;6.10;;;1.80;;
10963;SDS011;5534;48.784;9.190;2023-02-01T16:28:02;4.10;;;1.53;;
10963;SDS011;5534;48.784;9.190;2023-02-01T16:30:30;6.57;;;1.40;;
10963;SDS011;5534;48.784;9.190;2023-02-01T16:32:58;4.87;;;1.77;;
10963;SDS011;5534;48.784;9.190;2023-02-01T16:35:26;6.07;;;1.50;;
10963;SDS011;5534;48.784;9.190;2023-02-01T16:37:54;8.67;;;1.73;;
10963;SDS011;5534;48.784;9.190;2023-02-01T16:40:20;7.63;;;1.80;;
10963;SDS011;5534;48.784;9.190;2023-02-01T16:42:50;3.27;;;0.90;;
10963;SDS011;5534;48.784;9.190;2023-02-01T16:45:17;5.40;;;1.37;;
10963;SDS011;5534;48.784;9.190;2023-02-01T16:47:45;3.30;;;1.40;;
10963;SDS011;5534;48.784;9.190;2023-02-01T16:50:17;8.67;;;1.70;;
10963;SDS011;5534;48.784;9.190;2023-02-01T16:52:47;3.73;;;1.57;;
10963;SDS011;5534;48.784;9.190;2023-02-01T16:55:14;6.70;;;1.40;;
10963;SDS011;5534;48.784;9.190;2023-02-01T16:57:41;7.70;;;1.30;;
10963;SDS011;5534;48.784;9.190;2023-02-01T17:00:10;6.77;;;1.60;;
10963;SDS011;5534;48.784;9.190;2023-02-01T17:02:46;8.33;;;1.53;;
10963;SDS011;5534;48.784;9.190;2023-02-01T17:05:11;7.30;;;1.77;;
10963;SDS011;5534;48.784;9.190;2023-02-01T17:07:38;3.40;;;1.37;;
10963;SDS011;5534;48.784;9.190;2023-02-01T17:10:05;8.63;;;1.87;;
10963;SDS011;5534;48.784;9.190;2023-02-01T17:12:41;6.13;;;2.03;;
10963;SDS011;5534;48.784;9.190;2023-02-01T17:15:08;7.50;;;1.57;;
10963;SDS011;5534;48.784;9.190;2023-02-01T17:17:36;7.73;;;1.60;;
10963;SDS011;5534;48.784;9.190;2023-02-01T17:20:04;3.77;;;1.30;;
10963;SDS011;5534;48.784;9.190;2023-02-01T17:22:32;6.73;;;1.30;;
10963;SDS011;5534;48.784;9.190;2023-02-01T17:24:59;3.30;;;1.30;;
10963;SDS011;5534;48.784;9.190;2023-02-01T17:27:24;6.20;;;1.90;;
10963;SDS011;5534;48.784;9.190;2023-02-01T17:29:50;7.20;;;2.03;;
10963;SDS011;5534;48.784;9.190;2023-02-01T17:32:22;3.80;;;1.50;;
10963;SDS011;5534;48.784;9.190;2023-02-01T17:34:49;3.13;;;1.13;;
10963;SDS011;5534;48.784;9.190;2023-02-01T17:37:25;9.93;;;1.60;;
10963;SDS011;5534;48.784;9.190;2023-02-01T17:39:51;10.53;;;1.73;;
10963;SDS011;5534;48.784;9.190;2023-02-01T17:42:23;3.60;;;1.30;;
10963;SDS011;5534;48.784;9.190;2023-02-01T17:45:00;4.00;;;1.67;;
10963;SDS011;5534;48.784;9.190;2023-02-01T17:47:36;3.30;;;1.53;;
10963;SDS011;5534;48.784;9.190;2023-02-01T17:50:03;5.23;;;1.77;;
10963;SDS011;5534;48.784;9.190;2023-02-01T17:52:28;6.47;;;1.57;;
10963;SDS011;5534;48.784;9.190;2023-02-01T17:54:57;6.20;;;1.63;;
10963;SDS011;5534;48.784;9.190;2023-02-01T17:57:23;6.37;;;1.63;;
10963;SDS011;5534;48.784;9.190;2023-02-01T17:59:48;4.93;;;1.43;;
10963;SDS011;5534;48.784;9.190;2023-02-01T18:02:19;4.63;;;1.40;;